Terminal Aerodrome Forecast
Issued by NWS Sterling, VA

Current Version | Previous Version | Graphics & Text | Print | Product List | Glossary On
Versions: 1 2 3 4 5 6 7 8 9 10 11 12 13 14 15 16 17 18 19 20
000
FTUS41 KLWX 202043 AAA
TAFMRB
TAF AMD
KMRB 202043Z 2021/2118 17012G22KT P6SM VCTS BKN045CB
     FM210100 23007KT P6SM BKN050
     FM210600 27009KT P6SM BKN040
     FM211000 28009KT P6SM SCT080
     FM211500 27013KT P6SM SCT250=

USA.gov is the U.S. government's official web portal to all federal, state and local government web resources and services.